sensor_id;sensor_type;location;lat;lon;timestamp;pressure;altitude;pressure_sealevel;temperature;humidity
47530;BME280;33272;51.922;7.730;2023-01-28T00:00:50;143229.34;;;2.92;100.00
47530;BME280;33272;51.922;7.730;2023-01-28T00:03:18;143230.59;;;2.92;100.00
47530;BME280;33272;51.922;7.730;2023-01-28T00:05:45;143230.59;;;2.92;100.00
47530;BME280;33272;51.922;7.730;2023-01-28T00:08:12;143224.28;;;2.90;100.00
47530;BME280;33272;51.922;7.730;2023-01-28T00:10:40;143215.47;;;2.86;100.00
47530;BME280;33272;51.922;7.730;2023-01-28T00:13:11;143211.72;;;2.85;100.00
47530;BME280;33272;51.922;7.730;2023-01-28T00:15:39;143206.66;;;2.83;100.00
47530;BME280;33272;51.922;7.730;2023-01-28T00:18:06;143202.91;;;2.81;100.00
47530;BME280;33272;51.922;7.730;2023-01-28T00:20:34;143200.38;;;2.80;100.00
47530;BME280;33272;51.922;7.730;2023-01-28T00:23:02;143197.88;;;2.79;100.00
47530;BME280;33272;51.922;7.730;2023-01-28T00:25:29;143201.63;;;2.81;100.00
47530;BME280;33272;51.922;7.730;2023-01-28T00:27:56;143205.41;;;2.82;100.00
47530;BME280;33272;51.922;7.730;2023-01-28T00:30:23;143210.47;;;2.84;100.00
47530;BME280;33272;51.922;7.730;2023-01-28T00:32:52;143210.47;;;2.84;100.00
47530;BME280;33272;51.922;7.730;2023-01-28T00:35:19;143209.19;;;2.84;100.00
47530;BME280;33272;51.922;7.730;2023-01-28T00:37:47;143207.94;;;2.83;100.00
47530;BME280;33272;51.922;7.730;2023-01-28T00:40:15;143209.19;;;2.84;100.00
47530;BME280;33272;51.922;7.730;2023-01-28T00:42:42;143205.41;;;2.82;100.00
47530;BME280;33272;51.922;7.730;2023-01-28T00:45:09;143204.16;;;2.82;100.00
47530;BME280;33272;51.922;7.730;2023-01-28T00:47:36;143202.91;;;2.81;100.00
47530;BME280;33272;51.922;7.730;2023-01-28T00:50:05;143202.91;;;2.81;100.00
47530;BME280;33272;51.922;7.730;2023-01-28T00:52:32;143194.13;;;2.77;100.00
47530;BME280;33272;51.922;7.730;2023-01-28T00:55:00;143187.81;;;2.75;100.00
47530;BME280;33272;51.922;7.730;2023-01-28T00:57:27;143173.97;;;2.69;100.00
47530;BME280;33272;51.922;7.730;2023-01-28T00:59:54;143175.22;;;2.70;100.00
47530;BME280;33272;51.922;7.730;2023-01-28T01:02:21;143179.00;;;2.71;100.00
47530;BME280;33272;51.922;7.730;2023-01-28T01:04:48;143179.00;;;2.71;100.00
47530;BME280;33272;51.922;7.730;2023-01-28T01:07:27;143172.72;;;2.69;100.00
47530;BME280;33272;51.922;7.730;2023-01-28T01:10:01;143170.16;;;2.68;100.00
47530;BME280;33272;51.922;7.730;2023-01-28T01:12:29;143163.91;;;2.65;100.00
47530;BME280;33272;51.922;7.730;2023-01-28T01:14:56;143163.91;;;2.65;100.00
47530;BME280;33272;51.922;7.730;2023-01-28T01:17:23;143157.59;;;2.63;100.00
47530;BME280;33272;51.922;7.730;2023-01-28T01:19:50;143155.09;;;2.62;100.00
47530;BME280;33272;51.922;7.730;2023-01-28T01:22:17;143156.34;;;2.62;100.00
47530;BME280;33272;51.922;7.730;2023-01-28T01:24:46;143158.84;;;2.63;100.00
47530;BME280;33272;51.922;7.730;2023-01-28T01:27:14;143162.59;;;2.65;100.00
47530;BME280;33272;51.922;7.730;2023-01-28T01:29:41;143161.34;;;2.64;100.00
47530;BME280;33272;51.922;7.730;2023-01-28T01:32:08;143166.41;;;2.66;100.00
47530;BME280;33272;51.922;7.730;2023-01-28T01:34:35;143163.91;;;2.65;100.00
47530;BME280;33272;51.922;7.730;2023-01-28T01:37:02;143163.91;;;2.65;100.00
47530;BME280;33272;51.922;7.730;2023-01-28T01:39:31;143163.91;;;2.65;100.00
47530;BME280;33272;51.922;7.730;2023-01-28T01:41:58;143162.59;;;2.65;100.00
47530;BME280;33272;51.922;7.730;2023-01-28T01:44:59;143155.09;;;2.62;100.00
47530;BME280;33272;51.922;7.730;2023-01-28T01:47:35;143158.84;;;2.63;100.00
47530;BME280;33272;51.922;7.730;2023-01-28T01:50:12;143153.78;;;2.61;100.00
47530;BME280;33272;51.922;7.730;2023-01-28T01:52:42;143157.59;;;2.63;100.00
47530;BME280;33272;51.922;7.730;2023-01-28T01:55:13;143162.59;;;2.65;100.00
47530;BME280;33272;51.922;7.730;2023-01-28T01:57:43;143160.09;;;2.64;100.00
47530;BME280;33272;51.922;7.730;2023-01-28T02:00:15;143150.03;;;2.60;100.00
47530;BME280;33272;51.922;7.730;2023-01-28T02:02:46;143150.03;;;2.60;100.00
47530;BME280;33272;51.922;7.730;2023-01-28T02:05:17;143142.50;;;2.57;100.00
47530;BME280;33272;51.922;7.730;2023-01-28T02:07:49;143140.00;;;2.55;100.00
47530;BME280;33272;51.922;7.730;2023-01-28T02:10:17;143132.44;;;2.52;100.00
47530;BME280;33272;51.922;7.730;2023-01-28T02:12:47;143129.88;;;2.51;100.00
47530;BME280;33272;51.922;7.730;2023-01-28T02:15:21;143132.44;;;2.52;100.00
47530;BME280;33272;51.922;7.730;2023-01-28T02:17:50;143134.94;;;2.53;100.00
47530;BME280;33272;51.922;7.730;2023-01-28T02:20:22;143137.44;;;2.54;100.00
47530;BME280;33272;51.922;7.730;2023-01-28T02:23:26;143134.94;;;2.53;100.00
47530;BME280;33272;51.922;7.730;2023-01-28T02:29:17;143124.88;;;2.49;100.00
47530;BME280;33272;51.922;7.730;2023-01-28T02:31:52;143132.44;;;2.52;100.00
47530;BME280;33272;51.922;7.730;2023-01-28T02:34:30;143133.69;;;2.53;100.00
47530;BME280;33272;51.922;7.730;2023-01-28T02:37:07;143129.88;;;2.51;100.00
47530;BME280;33272;51.922;7.730;2023-01-28T02:39:43;143123.59;;;2.49;100.00
47530;BME280;33272;51.922;7.730;2023-01-28T02:42:16;143121.09;;;2.48;100.00
47530;BME280;33272;51.922;7.730;2023-01-28T02:44:45;143118.59;;;2.47;100.00
47530;BME280;33272;51.922;7.730;2023-01-28T02:47:14;143119.84;;;2.47;100.00
47530;BME280;33272;51.922;7.730;2023-01-28T02:50:00;143114.78;;;2.45;100.00
47530;BME280;33272;51.922;7.730;2023-01-28T02:52:38;143119.84;;;2.47;100.00
47530;BME280;33272;51.922;7.730;2023-01-28T02:55:37;143117.34;;;2.46;100.00
47530;BME280;33272;51.922;7.730;2023-01-28T02:58:10;143114.78;;;2.45;100.00
47530;BME280;33272;51.922;7.730;2023-01-28T03:00:50;143114.78;;;2.45;100.00
47530;BME280;33272;51.922;7.730;2023-01-28T03:03:25;143117.34;;;2.46;100.00
47530;BME280;33272;51.922;7.730;2023-01-28T03:05:57;143112.28;;;2.44;100.00
47530;BME280;33272;51.922;7.730;2023-01-28T03:08:35;143112.28;;;2.44;100.00
47530;BME280;33272;51.922;7.730;2023-01-28T03:11:22;143107.22;;;2.42;100.00
47530;BME280;33272;51.922;7.730;2023-01-28T03:14:08;143109.78;;;2.43;100.00
47530;BME280;33272;51.922;7.730;2023-01-28T03:16:58;143098.44;;;2.39;100.00
47530;BME280;33272;51.922;7.730;2023-01-28T03:19:44;143084.56;;;2.33;100.00
47530;BME280;33272;51.922;7.730;2023-01-28T03:22:32;143073.28;;;2.28;100.00
47530;BME280;33272;51.922;7.730;2023-01-28T03:25:20;143069.47;;;2.27;100.00
47530;BME280;33272;51.922;7.730;2023-01-28T03:28:10;143060.69;;;2.23;100.00
47530;BME280;33272;51.922;7.730;2023-01-28T03:31:02;143054.44;;;2.21;100.00
47530;BME280;33272;51.922;7.730;2023-01-28T03:33:50;143048.13;;;2.18;100.00
47530;BME280;33272;51.922;7.730;2023-01-28T03:36:36;143049.38;;;2.19;100.00
47530;BME280;33272;51.922;7.730;2023-01-28T03:39:13;143050.63;;;2.19;100.00
47530;BME280;33272;51.922;7.730;2023-01-28T03:41:40;143051.88;;;2.20;100.00
47530;BME280;33272;51.922;7.730;2023-01-28T03:44:07;143048.13;;;2.18;100.00
47530;BME280;33272;51.922;7.730;2023-01-28T03:46:51;143036.78;;;2.14;100.00
47530;BME280;33272;51.922;7.730;2023-01-28T03:49:19;143031.78;;;2.12;100.00
47530;BME280;33272;51.922;7.730;2023-01-28T03:51:46;143030.47;;;2.11;100.00
47530;BME280;33272;51.922;7.730;2023-01-28T03:54:13;143030.47;;;2.11;100.00
47530;BME280;33272;51.922;7.730;2023-01-28T03:56:40;143025.47;;;2.09;100.00
47530;BME280;33272;51.922;7.730;2023-01-28T03:59:07;143027.97;;;2.10;100.00
47530;BME280;33272;51.922;7.730;2023-01-28T04:01:34;143024.22;;;2.08;100.00
47530;BME280;33272;51.922;7.730;2023-01-28T04:04:01;143038.03;;;2.14;100.00
47530;BME280;33272;51.922;7.730;2023-01-28T04:06:29;143034.28;;;2.13;100.00
47530;BME280;33272;51.922;7.730;2023-01-28T04:08:56;143021.69;;;2.07;100.00
47530;BME280;33272;51.922;7.730;2023-01-28T04:11:25;143017.94;;;2.06;100.00
47530;BME280;33272;51.922;7.730;2023-01-28T04:13:52;143014.13;;;2.04;100.00
47530;BME280;33272;51.922;7.730;2023-01-28T04:16:19;143010.38;;;2.03;100.00
47530;BME280;33272;51.922;7.730;2023-01-28T04:18:46;143007.88;;;2.02;100.00
47530;BME280;33272;51.922;7.730;2023-01-28T04:21:14;143011.63;;;2.03;100.00
47530;BME280;33272;51.922;7.730;2023-01-28T04:23:42;143011.63;;;2.03;100.00
47530;BME280;33272;51.922;7.730;2023-01-28T04:26:09;143007.88;;;2.02;100.00
47530;BME280;33272;51.922;7.730;2023-01-28T04:28:36;143005.34;;;2.01;100.00
47530;BME280;33272;51.922;7.730;2023-01-28T04:31:03;143010.38;;;2.03;100.00
47530;BME280;33272;51.922;7.730;2023-01-28T04:33:30;143014.13;;;2.04;100.00
47530;BME280;33272;51.922;7.730;2023-01-28T04:35:57;143006.59;;;2.01;100.00
47530;BME280;33272;51.922;7.730;2023-01-28T04:38:24;143010.38;;;2.03;100.00
47530;BME280;33272;51.922;7.730;2023-01-28T04:40:53;143012.88;;;2.04;100.00
47530;BME280;33272;51.922;7.730;2023-01-28T04:43:20;143017.94;;;2.06;100.00
47530;BME280;33272;51.922;7.730;2023-01-28T04:45:47;143014.13;;;2.04;100.00
47530;BME280;33272;51.922;7.730;2023-01-28T04:48:15;143014.13;;;2.04;100.00
47530;BME280;33272;51.922;7.730;2023-01-28T04:50:43;143019.19;;;2.06;100.00
47530;BME280;33272;51.922;7.730;2023-01-28T04:53:11;143022.94;;;2.08;100.00
47530;BME280;33272;51.922;7.730;2023-01-28T04:55:38;143025.47;;;2.09;100.00
47530;BME280;33272;51.922;7.730;2023-01-28T04:58:07;143016.69;;;2.05;100.00
47530;BME280;33272;51.922;7.730;2023-01-28T05:00:34;143016.69;;;2.05;100.00
47530;BME280;33272;51.922;7.730;2023-01-28T05:03:01;143009.13;;;2.02;100.00
47530;BME280;33272;51.922;7.730;2023-01-28T05:05:28;142999.03;;;1.98;100.00
47530;BME280;33272;51.922;7.730;2023-01-28T05:07:56;143000.34;;;1.99;100.00
47530;BME280;33272;51.922;7.730;2023-01-28T05:10:25;142990.22;;;1.95;100.00
47530;BME280;33272;51.922;7.730;2023-01-28T05:12:53;142994.03;;;1.96;100.00
47530;BME280;33272;51.922;7.730;2023-01-28T05:15:21;142995.28;;;1.97;100.00
47530;BME280;33272;51.922;7.730;2023-01-28T05:17:48;142995.28;;;1.97;100.00
47530;BME280;33272;51.922;7.730;2023-01-28T05:20:16;142995.28;;;1.97;100.00
47530;BME280;33272;51.922;7.730;2023-01-28T05:22:43;142995.28;;;1.97;100.00
47530;BME280;33272;51.922;7.730;2023-01-28T05:25:10;142992.78;;;1.96;100.00
47530;BME280;33272;51.922;7.730;2023-01-28T05:27:37;142994.03;;;1.96;100.00
47530;BME280;33272;51.922;7.730;2023-01-28T05:30:06;142999.03;;;1.98;100.00
47530;BME280;33272;51.922;7.730;2023-01-28T05:32:34;143001.56;;;1.99;100.00
47530;BME280;33272;51.922;7.730;2023-01-28T05:35:02;142999.03;;;1.98;100.00
47530;BME280;33272;51.922;7.730;2023-01-28T05:37:29;142997.78;;;1.98;100.00
47530;BME280;33272;51.922;7.730;2023-01-28T05:39:56;143001.56;;;1.99;100.00
47530;BME280;33272;51.922;7.730;2023-01-28T05:42:23;142999.03;;;1.98;100.00
47530;BME280;33272;51.922;7.730;2023-01-28T05:44:50;142999.03;;;1.98;100.00
47530;BME280;33272;51.922;7.730;2023-01-28T05:47:17;142994.03;;;1.96;100.00
47530;BME280;33272;51.922;7.730;2023-01-28T05:49:45;142994.03;;;1.96;100.00
47530;BME280;33272;51.922;7.730;2023-01-28T05:52:12;142992.78;;;1.96;100.00
47530;BME280;33272;51.922;7.730;2023-01-28T05:54:39;142999.03;;;1.98;100.00
47530;BME280;33272;51.922;7.730;2023-01-28T05:57:06;143001.56;;;1.99;100.00
47530;BME280;33272;51.922;7.730;2023-01-28T05:59:33;143006.59;;;2.01;100.00
47530;BME280;33272;51.922;7.730;2023-01-28T06:02:00;143004.06;;;2.00;100.00
47530;BME280;33272;51.922;7.730;2023-01-28T06:04:27;143005.34;;;2.01;100.00
47530;BME280;33272;51.922;7.730;2023-01-28T06:06:55;143005.34;;;2.01;100.00
47530;BME280;33272;51.922;7.730;2023-01-28T06:09:22;143004.06;;;2.00;100.00
47530;BME280;33272;51.922;7.730;2023-01-28T06:11:50;143006.59;;;2.01;100.00
47530;BME280;33272;51.922;7.730;2023-01-28T06:14:17;143009.13;;;2.02;100.00
47530;BME280;33272;51.922;7.730;2023-01-28T06:16:44;143011.63;;;2.03;100.00
47530;BME280;33272;51.922;7.730;2023-01-28T06:19:11;143005.34;;;2.01;100.00
47530;BME280;33272;51.922;7.730;2023-01-28T06:21:38;143000.34;;;1.99;100.00
47530;BME280;33272;51.922;7.730;2023-01-28T06:24:09;143001.56;;;1.99;100.00
47530;BME280;33272;51.922;7.730;2023-01-28T06:26:36;142997.78;;;1.98;100.00
47530;BME280;33272;51.922;7.730;2023-01-28T06:29:03;142997.78;;;1.98;100.00
47530;BME280;33272;51.922;7.730;2023-01-28T06:31:30;142996.53;;;1.97;100.00
47530;BME280;33272;51.922;7.730;2023-01-28T06:33:57;143000.34;;;1.99;100.00
47530;BME280;33272;51.922;7.730;2023-01-28T06:36:24;143002.81;;;2.00;100.00
47530;BME280;33272;51.922;7.730;2023-01-28T06:38:52;143001.56;;;1.99;100.00
47530;BME280;33272;51.922;7.730;2023-01-28T06:41:20;143001.56;;;1.99;100.00
47530;BME280;33272;51.922;7.730;2023-01-28T06:43:47;142997.78;;;1.98;100.00
47530;BME280;33272;51.922;7.730;2023-01-28T06:46:14;142997.78;;;1.98;100.00
47530;BME280;33272;51.922;7.730;2023-01-28T06:48:41;142995.28;;;1.97;100.00
47530;BME280;33272;51.922;7.730;2023-01-28T06:51:08;142996.53;;;1.97;100.00
47530;BME280;33272;51.922;7.730;2023-01-28T06:53:35;142991.47;;;1.95;100.00
47530;BME280;33272;51.922;7.730;2023-01-28T06:56:02;142991.47;;;1.95;100.00
47530;BME280;33272;51.922;7.730;2023-01-28T06:58:31;142992.78;;;1.96;100.00
47530;BME280;33272;51.922;7.730;2023-01-28T07:00:58;142990.22;;;1.95;100.00
47530;BME280;33272;51.922;7.730;2023-01-28T07:03:25;142991.47;;;1.95;100.00
47530;BME280;33272;51.922;7.730;2023-01-28T07:05:52;142991.47;;;1.95;100.00
47530;BME280;33272;51.922;7.730;2023-01-28T07:08:19;142991.47;;;1.95;100.00
47530;BME280;33272;51.922;7.730;2023-01-28T07:10:46;142996.53;;;1.97;100.00
47530;BME280;33272;51.922;7.730;2023-01-28T07:13:14;142994.03;;;1.96;100.00
47530;BME280;33272;51.922;7.730;2023-01-28T07:15:42;142997.78;;;1.98;100.00
47530;BME280;33272;51.922;7.730;2023-01-28T07:18:09;142972.63;;;1.88;100.00
47530;BME280;33272;51.922;7.730;2023-01-28T07:20:36;142971.38;;;1.87;100.00
47530;BME280;33272;51.922;7.730;2023-01-28T07:23:03;142968.88;;;1.86;100.00
47530;BME280;33272;51.922;7.730;2023-01-28T07:25:30;142973.88;;;1.88;100.00
47530;BME280;33272;51.922;7.730;2023-01-28T07:27:57;142975.13;;;1.89;100.00
47530;BME280;33272;51.922;7.730;2023-01-28T07:30:24;142978.94;;;1.90;100.00
47530;BME280;33272;51.922;7.730;2023-01-28T07:32:57;142981.44;;;1.91;100.00
47530;BME280;33272;51.922;7.730;2023-01-28T07:35:25;142978.94;;;1.90;100.00
47530;BME280;33272;51.922;7.730;2023-01-28T07:37:54;142981.44;;;1.91;100.00
47530;BME280;33272;51.922;7.730;2023-01-28T07:40:22;142986.47;;;1.93;100.00
47530;BME280;33272;51.922;7.730;2023-01-28T07:42:49;142986.47;;;1.93;100.00
47530;BME280;33272;51.922;7.730;2023-01-28T07:45:17;142988.97;;;1.94;100.00
47530;BME280;33272;51.922;7.730;2023-01-28T07:47:44;142985.22;;;1.93;100.00
47530;BME280;33272;51.922;7.730;2023-01-28T07:50:12;142986.47;;;1.93;100.00
47530;BME280;33272;51.922;7.730;2023-01-28T07:52:41;142992.78;;;1.96;100.00
47530;BME280;33272;51.922;7.730;2023-01-28T07:55:11;142994.03;;;1.96;100.00
47530;BME280;33272;51.922;7.730;2023-01-28T07:57:48;142995.28;;;1.97;100.00
47530;BME280;33272;51.922;7.730;2023-01-28T08:00:17;143002.81;;;2.00;100.00
47530;BME280;33272;51.922;7.730;2023-01-28T08:02:44;143002.81;;;2.00;100.00
47530;BME280;33272;51.922;7.730;2023-01-28T08:05:15;143007.88;;;2.02;100.00
47530;BME280;33272;51.922;7.730;2023-01-28T08:07:43;143006.59;;;2.01;100.00
47530;BME280;33272;51.922;7.730;2023-01-28T08:10:11;143002.81;;;2.00;100.00
47530;BME280;33272;51.922;7.730;2023-01-28T08:12:38;143005.34;;;2.01;100.00
47530;BME280;33272;51.922;7.730;2023-01-28T08:15:07;143005.34;;;2.01;100.00
47530;BME280;33272;51.922;7.730;2023-01-28T08:17:34;143001.56;;;1.99;100.00
47530;BME280;33272;51.922;7.730;2023-01-28T08:20:01;143001.56;;;1.99;100.00
47530;BME280;33272;51.922;7.730;2023-01-28T08:22:29;143009.13;;;2.02;100.00
47530;BME280;33272;51.922;7.730;2023-01-28T08:24:56;143009.13;;;2.02;100.00
47530;BME280;33272;51.922;7.730;2023-01-28T08:27:23;143010.38;;;2.03;100.00
47530;BME280;33272;51.922;7.730;2023-01-28T08:29:50;143016.69;;;2.05;100.00
47530;BME280;33272;51.922;7.730;2023-01-28T08:32:17;143016.69;;;2.05;100.00
47530;BME280;33272;51.922;7.730;2023-01-28T08:34:44;143017.94;;;2.06;100.00
47530;BME280;33272;51.922;7.730;2023-01-28T08:37:11;143021.69;;;2.07;100.00
47530;BME280;33272;51.922;7.730;2023-01-28T08:39:40;143033.03;;;2.12;100.00
47530;BME280;33272;51.922;7.730;2023-01-28T08:42:07;143044.31;;;2.17;100.00
47530;BME280;33272;51.922;7.730;2023-01-28T08:44:34;143049.38;;;2.19;100.00
47530;BME280;33272;51.922;7.730;2023-01-28T08:47:01;143049.38;;;2.19;99.71
47530;BME280;33272;51.922;7.730;2023-01-28T08:49:28;143051.88;;;2.20;99.73
47530;BME280;33272;51.922;7.730;2023-01-28T08:51:55;143050.63;;;2.19;99.43
47530;BME280;33272;51.922;7.730;2023-01-28T08:54:22;143058.19;;;2.22;99.43
47530;BME280;33272;51.922;7.730;2023-01-28T08:56:51;143063.22;;;2.24;99.20
47530;BME280;33272;51.922;7.730;2023-01-28T08:59:18;143065.72;;;2.25;99.47
47530;BME280;33272;51.922;7.730;2023-01-28T09:01:45;143069.47;;;2.27;98.37
47530;BME280;33272;51.922;7.730;2023-01-28T09:04:12;143069.47;;;2.27;98.99
47530;BME280;33272;51.922;7.730;2023-01-28T09:06:38;143072.03;;;2.28;99.02
47530;BME280;33272;51.922;7.730;2023-01-28T09:09:05;143075.78;;;2.29;99.15
47530;BME280;33272;51.922;7.730;2023-01-28T09:11:32;143074.53;;;2.29;97.98
47530;BME280;33272;51.922;7.730;2023-01-28T09:14:01;143080.81;;;2.31;98.04
47530;BME280;33272;51.922;7.730;2023-01-28T09:16:28;143094.69;;;2.37;98.62
47530;BME280;33272;51.922;7.730;2023-01-28T09:18:55;143117.34;;;2.46;99.66
47530;BME280;33272;51.922;7.730;2023-01-28T09:21:22;143134.94;;;2.53;98.57
47530;BME280;33272;51.922;7.730;2023-01-28T09:23:49;143150.03;;;2.60;98.48
47530;BME280;33272;51.922;7.730;2023-01-28T09:26:16;143165.16;;;2.66;98.70
47530;BME280;33272;51.922;7.730;2023-01-28T09:28:43;143160.09;;;2.64;97.25
47530;BME280;33272;51.922;7.730;2023-01-28T09:31:11;143162.59;;;2.65;98.38
47530;BME280;33272;51.922;7.730;2023-01-28T09:33:39;143171.44;;;2.68;97.43
47530;BME280;33272;51.922;7.730;2023-01-28T09:36:09;143166.41;;;2.66;97.00
47530;BME280;33272;51.922;7.730;2023-01-28T09:38:37;143163.91;;;2.65;96.47
47530;BME280;33272;51.922;7.730;2023-01-28T09:41:19;143173.97;;;2.69;97.28
47530;BME280;33272;51.922;7.730;2023-01-28T09:44:18;143170.16;;;2.68;96.38
47530;BME280;33272;51.922;7.730;2023-01-28T09:46:52;143171.44;;;2.68;96.11
47530;BME280;33272;51.922;7.730;2023-01-28T09:49:27;143165.16;;;2.66;96.23
47530;BME280;33272;51.922;7.730;2023-01-28T09:51:58;143171.44;;;2.68;96.61
47530;BME280;33272;51.922;7.730;2023-01-28T09:54:41;143181.50;;;2.72;96.29
47530;BME280;33272;51.922;7.730;2023-01-28T09:57:18;143199.13;;;2.79;96.12
47530;BME280;33272;51.922;7.730;2023-01-28T09:59:46;143190.31;;;2.76;95.04
47530;BME280;33272;51.922;7.730;2023-01-28T10:02:36;143195.38;;;2.78;95.66
47530;BME280;33272;51.922;7.730;2023-01-28T10:05:19;143214.22;;;2.86;95.71
47530;BME280;33272;51.922;7.730;2023-01-28T10:07:59;143234.38;;;2.94;96.64
47530;BME280;33272;51.922;7.730;2023-01-28T10:10:34;143255.75;;;3.02;95.96
47530;BME280;33272;51.922;7.730;2023-01-28T10:13:19;143272.16;;;3.09;96.25
47530;BME280;33272;51.922;7.730;2023-01-28T10:16:02;143270.88;;;3.09;95.03
47530;BME280;33272;51.922;7.730;2023-01-28T10:18:38;143283.47;;;3.14;95.49
47530;BME280;33272;51.922;7.730;2023-01-28T10:21:14;143280.97;;;3.13;93.48
47530;BME280;33272;51.922;7.730;2023-01-28T10:23:53;143265.88;;;3.07;94.67
47530;BME280;33272;51.922;7.730;2023-01-28T10:26:25;143273.41;;;3.10;94.76
47530;BME280;33272;51.922;7.730;2023-01-28T10:28:59;143254.50;;;3.02;95.31
47530;BME280;33272;51.922;7.730;2023-01-28T10:31:32;143244.44;;;2.98;95.07
47530;BME280;33272;51.922;7.730;2023-01-28T10:34:02;143223.03;;;2.89;94.48
47530;BME280;33272;51.922;7.730;2023-01-28T10:36:30;143196.63;;;2.78;94.37
47530;BME280;33272;51.922;7.730;2023-01-28T10:38:57;143173.97;;;2.69;93.75
47530;BME280;33272;51.922;7.730;2023-01-28T10:41:24;143157.59;;;2.63;94.53
47530;BME280;33272;51.922;7.730;2023-01-28T10:43:51;143171.44;;;2.68;95.49
47530;BME280;33272;51.922;7.730;2023-01-28T10:46:22;143182.75;;;2.73;94.59
47530;BME280;33272;51.922;7.730;2023-01-28T10:48:57;143202.91;;;2.81;94.51
47530;BME280;33272;51.922;7.730;2023-01-28T10:51:35;143223.03;;;2.89;95.15
47530;BME280;33272;51.922;7.730;2023-01-28T10:54:13;143241.94;;;2.97;95.27
47530;BME280;33272;51.922;7.730;2023-01-28T10:56:43;143259.56;;;3.04;94.73
47530;BME280;33272;51.922;7.730;2023-01-28T10:59:20;143250.75;;;3.00;93.42
47530;BME280;33272;51.922;7.730;2023-01-28T11:01:51;143243.19;;;2.97;92.90
47530;BME280;33272;51.922;7.730;2023-01-28T11:04:23;143231.84;;;2.93;92.81
47530;BME280;33272;51.922;7.730;2023-01-28T11:06:58;143207.94;;;2.83;91.93
47530;BME280;33272;51.922;7.730;2023-01-28T11:09:29;143204.16;;;2.82;93.07
47530;BME280;33272;51.922;7.730;2023-01-28T11:11:56;143207.94;;;2.83;93.07
47530;BME280;33272;51.922;7.730;2023-01-28T11:14:26;143205.41;;;2.82;92.98
47530;BME280;33272;51.922;7.730;2023-01-28T11:16:55;143209.19;;;2.84;93.14
47530;BME280;33272;51.922;7.730;2023-01-28T11:19:30;143224.28;;;2.90;93.32
47530;BME280;33272;51.922;7.730;2023-01-28T11:22:01;143258.31;;;3.04;93.15
47530;BME280;33272;51.922;7.730;2023-01-28T11:24:30;143314.97;;;3.27;92.87
47530;BME280;33272;51.922;7.730;2023-01-28T11:27:11;143351.50;;;3.41;91.92
47530;BME280;33272;51.922;7.730;2023-01-28T11:29:40;143379.19;;;3.53;91.69
47530;BME280;33272;51.922;7.730;2023-01-28T11:32:17;143406.91;;;3.64;91.94
47530;BME280;33272;51.922;7.730;2023-01-28T11:34:49;143418.22;;;3.68;91.61
47530;BME280;33272;51.922;7.730;2023-01-28T11:37:21;143422.03;;;3.70;90.91
47530;BME280;33272;51.922;7.730;2023-01-28T11:40:01;143451.03;;;3.82;91.50
47530;BME280;33272;51.922;7.730;2023-01-28T11:42:29;143472.41;;;3.90;90.71
47530;BME280;33272;51.922;7.730;2023-01-28T11:44:57;143487.53;;;3.97;89.88
47530;BME280;33272;51.922;7.730;2023-01-28T11:47:48;143492.59;;;3.99;89.70
47530;BME280;33272;51.922;7.730;2023-01-28T11:50:30;143496.34;;;4.00;89.59
47530;BME280;33272;51.922;7.730;2023-01-28T11:53:44;143490.09;;;3.98;89.34
47530;BME280;33272;51.922;7.730;2023-01-28T11:57:03;143507.72;;;4.05;89.82
47530;BME280;33272;51.922;7.730;2023-01-28T11:59:50;143542.97;;;4.19;90.30
47530;BME280;33272;51.922;7.730;2023-01-28T12:02:37;143565.66;;;4.28;90.09
47530;BME280;33272;51.922;7.730;2023-01-28T12:05:29;143580.81;;;4.34;89.64
47530;BME280;33272;51.922;7.730;2023-01-28T12:08:10;143601.00;;;4.43;89.80
47530;BME280;33272;51.922;7.730;2023-01-28T12:10:55;143595.94;;;4.40;88.92
47530;BME280;33272;51.922;7.730;2023-01-28T12:13:40;143584.59;;;4.36;89.59
47530;BME280;33272;51.922;7.730;2023-01-28T12:16:29;143577.03;;;4.33;89.03
47530;BME280;33272;51.922;7.730;2023-01-28T12:19:45;143558.09;;;4.25;88.74
47530;BME280;33272;51.922;7.730;2023-01-28T12:25:52;143505.22;;;4.04;89.71
47530;BME280;33272;51.922;7.730;2023-01-28T12:28:37;143482.53;;;3.94;90.18
47530;BME280;33272;51.922;7.730;2023-01-28T12:31:37;143452.28;;;3.82;89.46
47530;BME280;33272;51.922;7.730;2023-01-28T12:34:51;143454.78;;;3.83;90.32
47530;BME280;33272;51.922;7.730;2023-01-28T12:37:33;143474.97;;;3.91;88.54
47530;BME280;33272;51.922;7.730;2023-01-28T12:40:17;143473.72;;;3.91;89.29
47530;BME280;33272;51.922;7.730;2023-01-28T12:42:55;143447.22;;;3.80;89.71
47530;BME280;33272;51.922;7.730;2023-01-28T12:45:29;143398.09;;;3.60;89.53
47530;BME280;33272;51.922;7.730;2023-01-28T12:48:03;143342.69;;;3.38;89.96
47530;BME280;33272;51.922;7.730;2023-01-28T12:50:40;143301.09;;;3.21;90.50
47530;BME280;33272;51.922;7.730;2023-01-28T12:53:21;143283.47;;;3.14;89.78
47530;BME280;33272;51.922;7.730;2023-01-28T12:55:54;143279.72;;;3.12;90.75
47530;BME280;33272;51.922;7.730;2023-01-28T12:58:36;143278.44;;;3.12;91.07
47530;BME280;33272;51.922;7.730;2023-01-28T13:01:08;143284.72;;;3.14;90.97
47530;BME280;33272;51.922;7.730;2023-01-28T13:03:40;143277.16;;;3.11;90.51
47530;BME280;33272;51.922;7.730;2023-01-28T13:06:14;143285.97;;;3.15;91.34
47530;BME280;33272;51.922;7.730;2023-01-28T13:08:42;143296.09;;;3.19;90.80
47530;BME280;33272;51.922;7.730;2023-01-28T13:11:14;143316.22;;;3.27;90.80
47530;BME280;33272;51.922;7.730;2023-01-28T13:13:45;143326.31;;;3.31;91.33
47530;BME280;33272;51.922;7.730;2023-01-28T13:16:12;143326.31;;;3.31;91.18
47530;BME280;33272;51.922;7.730;2023-01-28T13:18:44;143317.47;;;3.28;90.66
47530;BME280;33272;51.922;7.730;2023-01-28T13:21:28;143306.16;;;3.23;90.21
47530;BME280;33272;51.922;7.730;2023-01-28T13:24:17;143313.72;;;3.26;90.78